createdAt,value
2023-02-05T00:00:39.356Z,11.57
2023-02-05T00:03:05.935Z,13.95
2023-02-05T00:05:32.824Z,12.55
2023-02-05T00:07:59.534Z,13.50
2023-02-05T00:10:26.076Z,11.75
2023-02-05T00:12:52.637Z,13.18
2023-02-05T00:15:19.159Z,14.63
2023-02-05T00:17:45.683Z,10.68
2023-02-05T00:20:12.174Z,12.20
2023-02-05T00:22:38.702Z,14.30
2023-02-05T00:25:05.841Z,12.25
2023-02-05T00:27:33.750Z,12.57
2023-02-05T00:30:00.306Z,12.55
2023-02-05T00:32:26.814Z,13.52
2023-02-05T00:34:53.302Z,11.75
2023-02-05T00:37:20.019Z,11.85
2023-02-05T00:39:46.540Z,13.88
2023-02-05T00:42:13.024Z,14.15
2023-02-05T00:44:39.522Z,11.98
2023-02-05T00:47:06.017Z,9.80
2023-02-05T00:49:32.596Z,11.18
2023-02-05T00:51:59.224Z,10.10
2023-02-05T00:54:25.776Z,12.27
2023-02-05T00:56:52.299Z,13.07
2023-02-05T00:59:18.803Z,11.32
2023-02-05T01:01:45.463Z,8.90
2023-02-05T01:04:12.042Z,9.70
2023-02-05T01:06:38.529Z,11.95
2023-02-05T01:09:05.121Z,12.25
2023-02-05T01:11:31.643Z,10.13
2023-02-05T01:13:58.250Z,11.55
2023-02-05T01:16:24.824Z,11.90
2023-02-05T01:18:52.701Z,9.77
2023-02-05T01:21:19.249Z,9.32
2023-02-05T01:23:45.770Z,10.57
2023-02-05T01:26:12.293Z,9.65
2023-02-05T01:28:38.823Z,11.32
2023-02-05T01:31:05.572Z,10.57
2023-02-05T01:33:32.138Z,11.05
2023-02-05T01:35:58.679Z,10.50
2023-02-05T01:38:25.329Z,10.60
2023-02-05T01:40:52.002Z,9.85
2023-02-05T01:43:19.191Z,8.82
2023-02-05T01:45:52.114Z,10.43
2023-02-05T01:48:22.593Z,10.13
2023-02-05T01:50:54.466Z,9.63
2023-02-05T01:53:33.607Z,11.65
2023-02-05T01:56:17.440Z,7.57
2023-02-05T01:59:11.279Z,9.00
2023-02-05T02:01:39.391Z,9.43
2023-02-05T02:04:06.235Z,8.10
2023-02-05T02:06:34.875Z,8.77
2023-02-05T02:09:02.834Z,8.18
2023-02-05T02:11:32.266Z,9.15
2023-02-05T02:14:01.149Z,11.23
2023-02-05T02:16:28.820Z,10.20
2023-02-05T02:18:55.588Z,7.43
2023-02-05T02:21:37.589Z,7.47
2023-02-05T02:24:15.877Z,9.57
2023-02-05T02:27:09.790Z,8.23
2023-02-05T02:29:43.650Z,8.77
2023-02-05T02:32:18.634Z,8.30
2023-02-05T02:34:49.688Z,7.47
2023-02-05T02:37:25.469Z,7.38
2023-02-05T02:40:00.435Z,9.43
2023-02-05T02:42:55.763Z,8.70
2023-02-05T02:45:25.706Z,8.88
2023-02-05T02:47:55.897Z,7.32
2023-02-05T02:50:32.834Z,6.80
2023-02-05T02:53:19.170Z,6.68
2023-02-05T02:55:49.299Z,8.30
2023-02-05T02:58:27.627Z,6.60
2023-02-05T03:00:55.246Z,6.00
2023-02-05T03:03:26.466Z,7.20
2023-02-05T03:05:57.010Z,7.70
2023-02-05T03:08:31.017Z,7.15
2023-02-05T03:11:12.618Z,7.82
2023-02-05T03:13:39.633Z,6.13
2023-02-05T03:16:06.856Z,8.80
2023-02-05T03:18:33.557Z,7.53
2023-02-05T03:21:12.682Z,6.53
2023-02-05T03:23:39.602Z,6.65
2023-02-05T03:26:06.175Z,8.18
2023-02-05T03:28:32.705Z,6.35
2023-02-05T03:31:31.422Z,5.28
2023-02-05T03:34:12.600Z,6.20
2023-02-05T03:36:45.168Z,7.25
2023-02-05T03:39:30.543Z,6.72
2023-02-05T03:42:05.338Z,6.30
2023-02-05T03:45:03.772Z,6.18
2023-02-05T03:47:51.537Z,7.35
2023-02-05T03:50:36.026Z,6.88
2023-02-05T03:53:11.647Z,6.50
2023-02-05T03:55:45.049Z,6.80
2023-02-05T03:58:37.730Z,4.65
2023-02-05T04:01:04.601Z,5.78
2023-02-05T04:03:31.144Z,4.93
2023-02-05T04:05:57.703Z,5.35
2023-02-05T04:08:24.259Z,5.57
2023-02-05T04:10:50.791Z,4.57
2023-02-05T04:13:17.289Z,4.47
2023-02-05T04:15:43.801Z,5.10
2023-02-05T04:18:10.338Z,5.63
2023-02-05T04:20:36.843Z,6.20
2023-02-05T04:23:03.346Z,4.57
2023-02-05T04:25:29.927Z,6.03
2023-02-05T04:27:56.519Z,5.32
2023-02-05T04:30:23.085Z,5.07
2023-02-05T04:32:49.606Z,4.68
2023-02-05T04:35:16.135Z,5.53
2023-02-05T04:37:42.602Z,3.88
2023-02-05T04:40:09.886Z,4.68
2023-02-05T04:42:36.429Z,5.28
2023-02-05T04:45:05.733Z,5.55
2023-02-05T04:47:33.163Z,5.95
2023-02-05T04:49:59.784Z,4.75
2023-02-05T04:52:26.306Z,3.63
2023-02-05T04:54:52.782Z,4.00
2023-02-05T04:57:19.277Z,5.50
2023-02-05T04:59:45.749Z,5.43
2023-02-05T05:02:12.270Z,4.55
2023-02-05T05:04:38.853Z,4.53
2023-02-05T05:07:05.376Z,4.00
2023-02-05T05:09:31.893Z,4.03
2023-02-05T05:11:58.466Z,2.80
2023-02-05T05:14:24.965Z,4.53
2023-02-05T05:16:51.429Z,3.10
2023-02-05T05:19:17.918Z,3.67
2023-02-05T05:21:44.474Z,3.67
2023-02-05T05:24:11.054Z,4.15
2023-02-05T05:26:39.225Z,3.67
2023-02-05T05:29:06.242Z,2.85
2023-02-05T05:31:32.787Z,3.25
2023-02-05T05:33:59.376Z,3.75
2023-02-05T05:36:25.926Z,3.72
2023-02-05T05:38:52.422Z,3.85
2023-02-05T05:41:43.936Z,2.75
2023-02-05T05:44:11.281Z,2.67
2023-02-05T05:46:37.838Z,2.58
2023-02-05T05:49:04.378Z,2.88
2023-02-05T05:51:32.687Z,3.67
2023-02-05T05:53:59.275Z,3.58
2023-02-05T05:56:25.766Z,3.40
2023-02-05T05:58:52.566Z,3.90
2023-02-05T06:01:21.979Z,4.10
2023-02-05T06:03:48.798Z,2.65
2023-02-05T06:06:15.443Z,3.83
2023-02-05T06:08:41.976Z,2.92
2023-02-05T06:11:08.639Z,2.78
2023-02-05T06:13:35.490Z,2.33
2023-02-05T06:16:02.346Z,2.08
2023-02-05T06:18:29.226Z,4.15
2023-02-05T06:20:55.802Z,2.58
2023-02-05T06:23:22.269Z,3.13
2023-02-05T06:25:48.949Z,3.13
2023-02-05T06:28:15.492Z,3.10
2023-02-05T06:30:42.031Z,5.15
2023-02-05T06:33:08.563Z,10.00
2023-02-05T06:35:35.367Z,8.18
2023-02-05T06:38:02.197Z,9.98
2023-02-05T06:40:28.834Z,10.82
2023-02-05T06:42:55.697Z,10.93
2023-02-05T06:45:22.726Z,13.48
2023-02-05T06:47:50.042Z,17.15
2023-02-05T06:50:16.574Z,17.10
2023-02-05T06:52:43.149Z,18.88
2023-02-05T06:55:09.685Z,20.48
2023-02-05T06:57:36.542Z,18.58
2023-02-05T07:00:07.127Z,23.27
2023-02-05T07:02:33.695Z,24.80
2023-02-05T07:05:00.271Z,26.17
2023-02-05T07:07:26.903Z,25.92
2023-02-05T07:09:53.475Z,29.75
2023-02-05T07:12:20.140Z,33.08
2023-02-05T07:14:46.790Z,35.80
2023-02-05T07:17:13.453Z,30.38
2023-02-05T07:19:39.982Z,32.92
2023-02-05T07:22:06.545Z,34.88
2023-02-05T07:24:33.054Z,33.58
2023-02-05T07:26:59.596Z,35.85
2023-02-05T07:29:27.143Z,42.80
2023-02-05T07:31:53.717Z,39.60
2023-02-05T07:34:20.211Z,41.55
2023-02-05T07:36:50.826Z,40.58
2023-02-05T07:41:44.453Z,41.88
2023-02-05T07:44:11.046Z,41.17
2023-02-05T07:46:37.594Z,43.30
2023-02-05T07:49:04.135Z,44.45
2023-02-05T07:51:30.736Z,43.60
2023-02-05T07:53:57.233Z,41.05
2023-02-05T07:56:25.946Z,42.97
2023-02-05T07:58:52.456Z,46.95
2023-02-05T08:01:19.046Z,51.30
2023-02-05T08:03:45.614Z,47.13
2023-02-05T08:06:14.972Z,44.83
2023-02-05T08:08:41.541Z,47.85
2023-02-05T08:11:08.507Z,50.17
2023-02-05T08:13:35.130Z,46.65
2023-02-05T08:16:05.669Z,45.88
2023-02-05T08:18:32.258Z,52.33
2023-02-05T08:20:58.888Z,47.33
2023-02-05T08:23:25.776Z,47.60
2023-02-05T08:25:57.378Z,52.05
2023-02-05T08:28:25.989Z,47.42
2023-02-05T08:30:52.607Z,46.92
2023-02-05T08:33:19.152Z,43.03
2023-02-05T08:35:45.755Z,46.92
2023-02-05T08:38:12.329Z,46.53
2023-02-05T08:40:39.016Z,45.30
2023-02-05T08:43:05.778Z,41.60
2023-02-05T08:45:32.573Z,43.90
2023-02-05T08:47:59.403Z,40.20
2023-02-05T08:50:26.009Z,41.58
2023-02-05T08:52:52.601Z,46.97
2023-02-05T08:55:19.332Z,47.67
2023-02-05T08:57:46.298Z,39.28
2023-02-05T09:00:14.976Z,43.10
2023-02-05T09:02:43.238Z,45.15
2023-02-05T09:05:10.013Z,37.17
2023-02-05T09:07:38.923Z,37.05
2023-02-05T09:10:08.168Z,37.55
2023-02-05T09:12:34.687Z,38.40
2023-02-05T09:15:01.210Z,40.28
2023-02-05T09:17:27.819Z,40.05
2023-02-05T09:19:54.884Z,37.53
2023-02-05T09:22:21.382Z,40.75
2023-02-05T09:24:47.922Z,35.30
2023-02-05T09:27:15.022Z,37.90
2023-02-05T09:29:42.081Z,37.40
2023-02-05T09:32:08.881Z,33.28
2023-02-05T09:34:35.395Z,31.95
2023-02-05T09:37:01.971Z,32.50
2023-02-05T09:40:13.097Z,36.55
2023-02-05T09:42:36.925Z,34.13
2023-02-05T09:45:06.373Z,34.15
2023-02-05T09:47:49.854Z,32.60
2023-02-05T09:50:16.348Z,30.10
2023-02-05T09:52:50.982Z,33.65
2023-02-05T09:55:42.374Z,32.90
2023-02-05T09:58:48.982Z,26.02
2023-02-05T10:01:21.557Z,31.70
2023-02-05T10:03:56.203Z,29.42
2023-02-05T10:06:35.831Z,27.52
2023-02-05T10:09:24.643Z,27.08
2023-02-05T10:12:13.078Z,23.35
2023-02-05T10:14:58.097Z,29.98
2023-02-05T10:17:49.596Z,28.50
2023-02-05T10:20:31.155Z,24.80
2023-02-05T10:23:15.777Z,23.67
2023-02-05T10:25:50.163Z,25.45
2023-02-05T10:28:29.442Z,23.55
2023-02-05T10:31:07.257Z,23.75
2023-02-05T10:33:56.828Z,21.90
2023-02-05T10:36:26.712Z,20.67
2023-02-05T10:38:56.746Z,24.65
2023-02-05T10:41:26.016Z,20.13
2023-02-05T10:44:03.271Z,18.52
2023-02-05T10:46:36.960Z,23.23
2023-02-05T10:49:33.495Z,23.20
2023-02-05T10:52:00.115Z,20.30
2023-02-05T10:54:29.578Z,19.73
2023-02-05T10:56:58.228Z,21.05
2023-02-05T10:59:28.026Z,20.08
2023-02-05T11:01:57.683Z,23.08
2023-02-05T11:05:10.041Z,16.92
2023-02-05T11:07:42.076Z,18.42
2023-02-05T11:10:30.146Z,16.05
2023-02-05T11:13:04.954Z,23.50
2023-02-05T11:15:33.580Z,16.67
2023-02-05T11:18:04.255Z,18.08
2023-02-05T11:20:38.486Z,16.15
2023-02-05T11:23:21.143Z,16.17
2023-02-05T11:26:07.252Z,20.25
2023-02-05T11:28:36.505Z,17.80
2023-02-05T11:31:21.598Z,17.00
2023-02-05T11:33:48.848Z,18.73
2023-02-05T11:36:21.382Z,15.13
2023-02-05T11:38:57.154Z,20.17
2023-02-05T11:41:48.071Z,14.60
2023-02-05T11:44:20.482Z,17.23
2023-02-05T11:46:47.947Z,19.58
2023-02-05T11:49:22.552Z,14.85
2023-02-05T11:51:52.989Z,16.85
2023-02-05T11:54:29.659Z,15.57
2023-02-05T11:57:08.142Z,12.55
2023-02-05T11:59:35.833Z,14.65
2023-02-05T12:02:24.188Z,11.35
2023-02-05T12:04:55.091Z,13.65
2023-02-05T12:07:24.802Z,15.38
2023-02-05T12:09:55.670Z,14.38
2023-02-05T12:12:39.460Z,12.30
2023-02-05T12:15:14.851Z,13.18
2023-02-05T12:18:13.704Z,12.70
2023-02-05T12:20:50.593Z,11.27
2023-02-05T12:23:23.543Z,14.02
2023-02-05T12:25:50.030Z,11.60
2023-02-05T12:28:44.446Z,14.15
2023-02-05T12:31:23.380Z,14.95
2023-02-05T12:34:06.405Z,14.18
2023-02-05T12:36:35.844Z,15.20
2023-02-05T12:39:30.273Z,12.63
2023-02-05T12:42:15.102Z,13.98
2023-02-05T12:45:03.822Z,9.43
2023-02-05T12:47:48.337Z,13.65
2023-02-05T12:50:42.757Z,11.20
2023-02-05T12:53:30.053Z,11.43
2023-02-05T12:56:28.284Z,11.32
2023-02-05T12:59:01.553Z,13.75
2023-02-05T13:01:58.052Z,10.38
2023-02-05T13:04:30.021Z,12.35
2023-02-05T13:07:11.671Z,13.52
2023-02-05T13:09:57.084Z,10.93
2023-02-05T13:12:28.712Z,11.50
2023-02-05T13:15:08.193Z,12.82
2023-02-05T13:17:40.419Z,6.60
2023-02-05T13:20:56.352Z,9.68
2023-02-05T13:23:43.954Z,9.23
2023-02-05T13:26:24.537Z,10.00
2023-02-05T13:28:56.960Z,8.05
2023-02-05T13:31:30.253Z,8.15
2023-02-05T13:34:03.067Z,11.27
2023-02-05T13:36:52.409Z,10.48
2023-02-05T13:39:33.836Z,12.55
2023-02-05T13:42:39.331Z,8.57
2023-02-05T13:45:52.529Z,12.55
2023-02-05T13:48:49.823Z,8.82
2023-02-05T13:51:39.180Z,11.10
2023-02-05T13:54:27.760Z,10.13
2023-02-05T13:57:49.301Z,11.40
2023-02-05T14:00:16.875Z,8.43
2023-02-05T14:02:48.063Z,9.73
2023-02-05T14:05:16.594Z,7.15
2023-02-05T14:07:50.813Z,8.40
2023-02-05T14:10:29.450Z,9.00
2023-02-05T14:13:13.121Z,9.48
2023-02-05T14:15:42.734Z,8.55
2023-02-05T14:18:40.567Z,9.15
2023-02-05T14:21:32.861Z,12.07
2023-02-05T14:24:02.714Z,8.93
2023-02-05T14:26:48.149Z,12.45
2023-02-05T14:29:42.752Z,7.05
2023-02-05T14:32:33.335Z,9.82
2023-02-05T14:35:32.492Z,9.00
2023-02-05T14:38:14.812Z,9.80
2023-02-05T14:40:41.751Z,10.65
2023-02-05T14:43:38.485Z,13.40
2023-02-05T14:46:19.686Z,10.35
2023-02-05T14:48:47.600Z,11.40
2023-02-05T14:51:25.804Z,7.35
2023-02-05T14:54:00.145Z,8.02
2023-02-05T14:56:40.452Z,8.55
2023-02-05T14:59:31.905Z,9.10
2023-02-05T15:01:59.747Z,8.63
2023-02-05T15:04:41.757Z,8.77
2023-02-05T15:07:20.334Z,7.88
2023-02-05T15:09:53.418Z,8.02
2023-02-05T15:12:53.724Z,10.23
2023-02-05T15:15:34.297Z,10.07
2023-02-05T15:18:05.780Z,10.90
2023-02-05T15:20:36.451Z,10.30
2023-02-05T15:23:29.150Z,11.98
2023-02-05T15:26:01.833Z,12.43
2023-02-05T15:28:41.741Z,13.20
2023-02-05T15:31:16.953Z,15.00
2023-02-05T15:33:54.440Z,16.17
2023-02-05T15:36:40.321Z,16.65
2023-02-05T15:39:24.129Z,14.45
2023-02-05T15:41:55.675Z,17.05
2023-02-05T15:44:34.605Z,21.02
2023-02-05T15:47:05.369Z,18.80
2023-02-05T15:49:36.671Z,21.15
2023-02-05T15:52:04.522Z,22.45
2023-02-05T15:54:34.043Z,23.90
2023-02-05T15:57:03.072Z,25.08
2023-02-05T15:59:31.598Z,26.92
2023-02-05T16:02:09.028Z,24.13
2023-02-05T16:04:38.800Z,19.67
2023-02-05T16:07:23.410Z,26.17
2023-02-05T16:09:54.021Z,28.88
2023-02-05T16:12:20.756Z,33.25
2023-02-05T16:14:57.712Z,36.67
2023-02-05T16:17:45.681Z,38.35
2023-02-05T16:20:22.360Z,35.20
2023-02-05T16:22:52.755Z,39.00
2023-02-05T16:25:19.197Z,40.83
2023-02-05T16:27:50.820Z,48.05
2023-02-05T16:30:23.389Z,54.55
2023-02-05T16:32:55.824Z,45.05
2023-02-05T16:35:39.521Z,53.38
2023-02-05T16:38:10.958Z,49.65
2023-02-05T16:40:43.216Z,52.97
2023-02-05T16:43:24.897Z,56.67
2023-02-05T16:46:06.739Z,60.97
2023-02-05T16:48:49.854Z,58.63
2023-02-05T16:51:28.530Z,54.30
2023-02-05T16:53:55.045Z,60.95
2023-02-05T16:56:25.193Z,58.55
2023-02-05T16:58:55.744Z,56.88
2023-02-05T17:01:37.016Z,61.35
2023-02-05T17:04:03.797Z,58.08
2023-02-05T17:06:35.413Z,65.03
2023-02-05T17:09:04.926Z,60.03
2023-02-05T17:11:37.695Z,57.53
2023-02-05T17:14:32.675Z,58.53
2023-02-05T17:17:04.187Z,55.95
2023-02-05T17:19:33.216Z,54.70
2023-02-05T17:22:14.791Z,53.20
2023-02-05T17:24:48.800Z,51.50
2023-02-05T17:27:27.245Z,55.15
2023-02-05T17:29:54.534Z,52.42
2023-02-05T17:32:21.965Z,59.17
2023-02-05T17:34:48.712Z,54.55
2023-02-05T17:37:15.376Z,56.00
2023-02-05T17:39:42.576Z,61.47
2023-02-05T17:42:25.444Z,62.47
2023-02-05T17:44:53.166Z,55.47
2023-02-05T17:47:20.123Z,57.78
2023-02-05T17:49:46.740Z,61.28
2023-02-05T17:52:15.376Z,61.00
2023-02-05T17:54:43.133Z,64.90
2023-02-05T17:57:18.882Z,60.13
2023-02-05T17:59:46.429Z,63.13
2023-02-05T18:02:14.035Z,61.75
2023-02-05T18:04:41.545Z,58.65
2023-02-05T18:07:33.570Z,57.10
2023-02-05T18:10:00.290Z,60.33
2023-02-05T18:12:26.994Z,62.10
2023-02-05T18:14:54.201Z,61.28
2023-02-05T18:17:20.789Z,63.47
2023-02-05T18:19:47.321Z,60.45
2023-02-05T18:22:14.235Z,56.80
2023-02-05T18:24:40.743Z,61.55
2023-02-05T18:27:12.150Z,60.55
2023-02-05T18:29:39.407Z,55.20
2023-02-05T18:32:06.629Z,55.10
2023-02-05T18:34:33.233Z,55.75
2023-02-05T18:37:00.031Z,63.90
2023-02-05T18:39:28.583Z,61.67
2023-02-05T18:41:56.234Z,61.72
2023-02-05T18:44:23.350Z,54.58
2023-02-05T18:46:49.968Z,62.13
2023-02-05T18:49:16.850Z,59.22
2023-02-05T18:51:43.708Z,59.47
2023-02-05T18:54:10.539Z,58.72
2023-02-05T18:56:37.292Z,55.72
2023-02-05T18:59:06.852Z,60.00
2023-02-05T19:01:38.679Z,55.97
2023-02-05T19:04:15.923Z,56.05
2023-02-05T19:06:44.458Z,56.33
2023-02-05T19:09:11.468Z,53.22
2023-02-05T19:11:41.306Z,55.42
2023-02-05T19:14:11.451Z,51.33
2023-02-05T19:16:39.711Z,50.92
2023-02-05T19:19:06.656Z,52.30
2023-02-05T19:21:33.695Z,54.05
2023-02-05T19:24:07.085Z,48.50
2023-02-05T19:26:35.481Z,51.53
2023-02-05T19:29:05.121Z,50.00
2023-02-05T19:31:33.645Z,50.70
2023-02-05T19:34:01.373Z,49.25
2023-02-05T19:36:28.454Z,50.95
2023-02-05T19:38:54.974Z,52.05
2023-02-05T19:41:24.373Z,49.22
2023-02-05T19:43:56.886Z,47.22
2023-02-05T19:46:26.848Z,49.10
2023-02-05T19:48:55.546Z,45.08
2023-02-05T19:51:22.352Z,46.65
2023-02-05T19:53:48.977Z,49.03
2023-02-05T19:56:22.181Z,45.63
2023-02-05T19:58:51.465Z,51.78
2023-02-05T20:01:19.635Z,51.75
2023-02-05T20:03:46.286Z,47.90
2023-02-05T20:06:15.969Z,49.90
2023-02-05T20:08:45.295Z,48.67
2023-02-05T20:11:12.684Z,49.15
2023-02-05T20:13:39.887Z,48.53
2023-02-05T20:16:13.175Z,47.05
2023-02-05T20:18:41.146Z,48.95
2023-02-05T20:21:12.682Z,53.13
2023-02-05T20:23:39.702Z,50.53
2023-02-05T20:26:07.823Z,49.42
2023-02-05T20:28:57.849Z,54.65
2023-02-05T20:31:35.245Z,48.42
2023-02-05T20:34:06.905Z,50.58
2023-02-05T20:36:34.929Z,48.63
2023-02-05T20:39:05.075Z,52.55
2023-02-05T20:41:31.959Z,50.55
2023-02-05T20:43:58.905Z,47.88
2023-02-05T20:46:26.439Z,49.88
2023-02-05T20:48:52.948Z,49.67
2023-02-05T20:51:22.205Z,50.60
2023-02-05T20:53:49.424Z,49.33
2023-02-05T20:56:20.124Z,47.85
2023-02-05T20:58:47.369Z,51.67
2023-02-05T21:01:20.623Z,49.05
2023-02-05T21:03:50.278Z,43.67
2023-02-05T21:06:18.707Z,44.92
2023-02-05T21:08:46.906Z,47.05
2023-02-05T21:11:15.099Z,46.38
2023-02-05T21:13:43.079Z,44.40
2023-02-05T21:16:11.807Z,44.47
2023-02-05T21:18:40.319Z,48.47
2023-02-05T21:21:08.434Z,46.72
2023-02-05T21:23:35.557Z,48.15
2023-02-05T21:26:02.355Z,45.00
2023-02-05T21:28:29.280Z,44.05
2023-02-05T21:31:07.769Z,48.10
2023-02-05T21:33:35.287Z,45.30
2023-02-05T21:36:10.418Z,44.95
2023-02-05T21:38:38.699Z,45.55
2023-02-05T21:41:13.574Z,45.50
2023-02-05T21:43:40.756Z,43.45
2023-02-05T21:46:10.131Z,42.50
2023-02-05T21:48:36.698Z,44.88
2023-02-05T21:51:08.717Z,44.10
2023-02-05T21:53:35.431Z,42.75
2023-02-05T21:56:03.579Z,42.08
2023-02-05T21:58:34.320Z,40.47
2023-02-05T22:01:13.146Z,43.00
2023-02-05T22:03:41.246Z,44.80
2023-02-05T22:06:08.806Z,41.90
2023-02-05T22:08:37.750Z,43.97
2023-02-05T22:11:06.445Z,41.78
2023-02-05T22:13:35.098Z,43.10
2023-02-05T22:16:13.009Z,43.60
2023-02-05T22:18:39.788Z,43.65
2023-02-05T22:21:23.636Z,42.72
2023-02-05T22:23:52.255Z,38.28
2023-02-05T22:26:24.731Z,38.60
2023-02-05T22:28:51.448Z,40.03
2023-02-05T22:31:20.033Z,42.17
2023-02-05T22:33:48.569Z,39.90
2023-02-05T22:36:16.721Z,38.60
2023-02-05T22:38:43.743Z,35.20
2023-02-05T22:41:12.668Z,37.55
2023-02-05T22:43:39.907Z,40.47
2023-02-05T22:46:09.614Z,35.13
2023-02-05T22:48:37.796Z,39.35
2023-02-05T22:51:09.870Z,37.42
2023-02-05T22:53:37.068Z,38.50
2023-02-05T22:56:06.538Z,34.72
2023-02-05T22:58:33.685Z,32.63
2023-02-05T23:01:11.128Z,36.78
2023-02-05T23:03:38.482Z,34.80
2023-02-05T23:06:13.636Z,34.67
2023-02-05T23:08:40.899Z,38.13
2023-02-05T23:11:10.573Z,35.38
2023-02-05T23:13:37.095Z,32.15
2023-02-05T23:16:15.338Z,30.90
2023-02-05T23:18:42.617Z,32.10
2023-02-05T23:21:18.049Z,33.83
2023-02-05T23:23:44.919Z,31.83
2023-02-05T23:26:18.050Z,32.22
2023-02-05T23:28:45.114Z,29.77
2023-02-05T23:31:11.772Z,34.38
2023-02-05T23:33:38.593Z,29.85
2023-02-05T23:36:06.823Z,31.02
2023-02-05T23:38:34.020Z,33.65
2023-02-05T23:41:01.020Z,31.23
2023-02-05T23:43:27.986Z,31.30
2023-02-05T23:45:54.979Z,31.13
2023-02-05T23:48:21.584Z,29.25
2023-02-05T23:50:54.620Z,26.38
2023-02-05T23:53:21.540Z,29.90
2023-02-05T23:55:49.746Z,25.13
2023-02-05T23:58:17.530Z,28.10
